createdAt,value
2022-12-15T00:02:51.532Z,92.55
2022-12-15T00:08:24.810Z,92.40
2022-12-15T00:13:49.723Z,92.63
2022-12-15T00:19:14.700Z,92.42
2022-12-15T00:24:40.098Z,92.43
2022-12-15T00:30:05.221Z,92.62
2022-12-15T00:35:31.343Z,92.25
2022-12-15T00:40:38.951Z,92.43
2022-12-15T00:46:12.454Z,93.17
2022-12-15T00:51:20.794Z,92.99
2022-12-15T00:56:48.107Z,93.48
2022-12-15T01:02:13.103Z,93.93
2022-12-15T01:07:38.612Z,94.28
2022-12-15T01:13:05.048Z,94.40
2022-12-15T01:18:29.994Z,94.29
2022-12-15T01:23:38.599Z,94.26
2022-12-15T01:28:46.252Z,94.66
2022-12-15T01:33:56.732Z,94.95
2022-12-15T01:39:10.857Z,94.98
2022-12-15T01:44:21.935Z,95.46
2022-12-15T01:49:33.045Z,95.67
2022-12-15T01:54:44.348Z,95.96
2022-12-15T01:59:59.147Z,95.74
2022-12-15T02:05:09.004Z,95.97
2022-12-15T02:13:53.254Z,95.72
2022-12-15T02:19:10.585Z,95.73
2022-12-15T02:24:49.724Z,96.03
2022-12-15T02:30:31.470Z,96.31
2022-12-15T02:36:03.397Z,95.99
2022-12-15T02:41:39.206Z,96.13
2022-12-15T02:47:05.963Z,95.59
2022-12-15T02:52:27.799Z,95.29
2022-12-15T02:58:01.169Z,95.61
2022-12-15T03:03:09.817Z,95.67
2022-12-15T03:08:17.222Z,95.53
2022-12-15T03:13:31.480Z,95.82
2022-12-15T03:18:43.197Z,96.15
2022-12-15T03:23:50.647Z,96.16
2022-12-15T03:28:58.197Z,96.22
2022-12-15T03:34:05.757Z,96.05
2022-12-15T03:39:14.121Z,96.35
2022-12-15T03:44:21.386Z,96.25
2022-12-15T03:49:28.876Z,95.94
2022-12-15T03:54:34.752Z,96.18
2022-12-15T03:59:48.500Z,96.44
2022-12-15T04:04:56.099Z,96.44
2022-12-15T04:10:03.442Z,96.48
2022-12-15T04:15:13.046Z,96.25
2022-12-15T04:20:24.293Z,96.32
2022-12-15T04:25:49.000Z,96.27
2022-12-15T04:31:16.934Z,96.35
2022-12-15T04:36:43.091Z,96.15
2022-12-15T04:42:08.036Z,96.24
2022-12-15T04:47:33.139Z,96.33
2022-12-15T04:52:57.845Z,96.36
2022-12-15T04:58:29.614Z,96.59
2022-12-15T05:09:37.579Z,96.75
2022-12-15T05:15:03.046Z,96.73
2022-12-15T05:20:29.306Z,96.64
2022-12-15T05:25:55.801Z,96.80
2022-12-15T05:31:28.337Z,97.05
2022-12-15T05:36:38.868Z,96.98
2022-12-15T05:41:47.730Z,97.48
2022-12-15T05:46:55.720Z,97.23
2022-12-15T05:52:04.031Z,97.11
2022-12-15T05:57:11.253Z,97.11
2022-12-15T06:02:19.124Z,97.28
2022-12-15T06:07:27.047Z,97.38
2022-12-15T06:12:34.761Z,97.62
2022-12-15T06:17:41.996Z,97.49
2022-12-15T06:22:50.440Z,97.26
2022-12-15T06:28:01.728Z,97.37
2022-12-15T06:33:10.921Z,97.52
2022-12-15T06:38:21.778Z,97.25
2022-12-15T06:43:33.658Z,97.31
2022-12-15T06:48:45.312Z,97.46
2022-12-15T06:53:56.532Z,97.48
2022-12-15T06:59:06.472Z,97.25
2022-12-15T07:04:14.430Z,97.53
2022-12-15T07:09:22.064Z,97.85
2022-12-15T07:14:30.691Z,97.50
2022-12-15T07:19:38.195Z,97.62
2022-12-15T07:24:46.230Z,97.62
2022-12-15T07:29:53.834Z,97.81
2022-12-15T07:35:05.487Z,97.62
2022-12-15T07:40:14.291Z,97.41
2022-12-15T07:45:22.083Z,97.42
2022-12-15T07:50:30.403Z,97.22
2022-12-15T07:56:06.423Z,96.88
2022-12-15T08:01:16.474Z,96.74
2022-12-15T08:06:23.925Z,96.25
2022-12-15T08:11:35.461Z,96.21
2022-12-15T08:16:43.933Z,95.29
2022-12-15T08:21:51.635Z,95.15
2022-12-15T08:27:01.617Z,94.95
2022-12-15T08:32:10.910Z,94.49
2022-12-15T08:42:58.429Z,93.97
2022-12-15T08:48:06.062Z,93.52
2022-12-15T08:53:30.918Z,93.64
2022-12-15T08:58:40.660Z,93.38
2022-12-15T09:03:50.721Z,93.25
2022-12-15T09:09:15.652Z,93.06
2022-12-15T09:14:29.457Z,92.75
2022-12-15T09:19:37.321Z,92.74
2022-12-15T09:24:44.658Z,92.70
2022-12-15T09:29:52.254Z,92.99
2022-12-15T09:34:59.656Z,92.12
2022-12-15T09:40:07.763Z,91.37
2022-12-15T09:45:21.259Z,91.19
2022-12-15T09:50:35.352Z,90.91
2022-12-15T09:55:45.376Z,91.16
2022-12-15T10:01:03.189Z,90.95
2022-12-15T10:06:16.993Z,90.65
2022-12-15T10:11:42.427Z,90.38
2022-12-15T10:17:00.205Z,89.93
2022-12-15T10:22:05.972Z,89.34
2022-12-15T10:27:36.351Z,89.40
2022-12-15T10:33:00.542Z,89.59
2022-12-15T10:38:15.560Z,89.59
2022-12-15T10:43:31.421Z,89.28
2022-12-15T10:48:39.780Z,88.95
2022-12-15T10:53:50.944Z,88.92
2022-12-15T10:59:00.285Z,89.09
2022-12-15T11:04:25.490Z,88.69
2022-12-15T11:09:36.704Z,88.47
2022-12-15T11:14:47.917Z,88.64
2022-12-15T11:20:02.984Z,88.41
2022-12-15T11:25:22.302Z,88.13
2022-12-15T11:30:35.171Z,88.10
2022-12-15T11:35:55.532Z,88.13
2022-12-15T11:41:13.637Z,87.89
2022-12-15T11:46:25.344Z,88.26
2022-12-15T11:51:45.406Z,87.83
2022-12-15T11:56:58.193Z,87.32
2022-12-15T12:02:25.486Z,87.42
2022-12-15T12:07:42.452Z,87.60
2022-12-15T12:13:01.576Z,87.87
2022-12-15T12:18:15.410Z,88.01
2022-12-15T12:23:39.822Z,87.92
2022-12-15T12:28:58.481Z,87.91
2022-12-15T12:34:14.749Z,87.88
2022-12-15T12:39:25.758Z,87.98
2022-12-15T12:44:35.619Z,87.85
2022-12-15T12:49:47.020Z,87.85
2022-12-15T12:55:05.034Z,87.75
2022-12-15T13:00:24.040Z,87.70
2022-12-15T13:05:36.356Z,87.64
2022-12-15T13:10:45.552Z,87.64
2022-12-15T13:16:03.598Z,87.84
2022-12-15T13:21:52.876Z,87.77
2022-12-15T13:27:17.417Z,87.45
2022-12-15T13:32:40.144Z,87.58
2022-12-15T13:37:54.346Z,87.65
2022-12-15T13:43:09.423Z,86.96
2022-12-15T13:48:33.012Z,87.26
2022-12-15T13:53:51.488Z,87.72
2022-12-15T13:59:06.309Z,87.80
2022-12-15T14:04:16.815Z,87.94
2022-12-15T14:09:41.431Z,88.05
2022-12-15T14:14:53.305Z,87.94
2022-12-15T14:20:11.867Z,88.26
2022-12-15T14:25:23.074Z,88.22
2022-12-15T14:30:33.878Z,87.90
2022-12-15T14:35:49.469Z,88.12
2022-12-15T14:41:02.151Z,88.22
2022-12-15T14:46:13.015Z,88.20
2022-12-15T14:51:20.886Z,88.27
2022-12-15T14:56:31.776Z,88.51
2022-12-15T15:01:41.850Z,87.93
2022-12-15T15:06:55.196Z,88.17
2022-12-15T15:12:07.204Z,88.16
2022-12-15T15:17:25.552Z,88.23
2022-12-15T15:22:41.097Z,88.29
2022-12-15T15:27:48.823Z,88.05
2022-12-15T15:32:58.640Z,88.40
2022-12-15T15:38:12.792Z,88.80
2022-12-15T15:43:20.784Z,88.79
2022-12-15T15:48:32.404Z,88.77
2022-12-15T15:53:40.535Z,88.56
2022-12-15T15:58:48.556Z,88.69
2022-12-15T16:03:55.718Z,88.49
2022-12-15T16:09:03.290Z,88.39
2022-12-15T16:14:14.551Z,88.60
2022-12-15T16:19:21.914Z,88.78
2022-12-15T16:24:29.359Z,88.74
2022-12-15T16:29:38.537Z,88.72
2022-12-15T16:34:45.902Z,88.78
2022-12-15T16:43:19.852Z,88.79
2022-12-15T16:48:27.182Z,88.75
2022-12-15T16:53:37.970Z,88.74
2022-12-15T16:58:48.759Z,88.88
2022-12-15T17:04:00.562Z,88.80
2022-12-15T17:09:09.575Z,88.65
2022-12-15T17:14:17.079Z,88.82
2022-12-15T17:19:24.391Z,88.99
2022-12-15T17:24:30.051Z,88.90
2022-12-15T17:29:37.343Z,88.78
2022-12-15T17:34:43.435Z,88.76
2022-12-15T17:39:51.915Z,88.82
2022-12-15T17:44:59.406Z,88.74
2022-12-15T17:50:07.651Z,88.70
2022-12-15T17:55:34.836Z,88.75
2022-12-15T18:00:48.914Z,88.71
2022-12-15T18:06:07.614Z,88.32
2022-12-15T18:11:17.977Z,88.25
2022-12-15T18:16:25.288Z,88.51
2022-12-15T18:21:32.691Z,88.30
2022-12-15T18:26:40.623Z,88.26
2022-12-15T18:31:49.770Z,88.25
2022-12-15T18:36:57.841Z,88.54
2022-12-15T18:42:29.518Z,88.50
2022-12-15T18:47:40.183Z,88.32
2022-12-15T18:52:49.262Z,87.86
2022-12-15T18:57:59.012Z,88.20
2022-12-15T19:03:06.669Z,88.39
2022-12-15T19:08:20.446Z,88.60
2022-12-15T19:13:32.000Z,88.91
2022-12-15T19:18:57.094Z,88.63
2022-12-15T19:32:23.096Z,88.16
2022-12-15T19:37:32.177Z,87.66
2022-12-15T19:42:41.165Z,87.12
2022-12-15T19:47:48.979Z,87.53
2022-12-15T19:52:59.407Z,87.60
2022-12-15T20:08:17.720Z,87.50
2022-12-15T20:13:22.556Z,87.25
2022-12-15T20:18:26.862Z,87.35
2022-12-15T20:23:31.596Z,86.88
2022-12-15T20:28:36.265Z,86.77
2022-12-15T20:33:45.266Z,86.79
2022-12-15T20:38:54.717Z,86.81
2022-12-15T20:44:28.694Z,86.94
2022-12-15T20:49:33.068Z,86.51
2022-12-15T20:54:37.230Z,85.79
2022-12-15T20:59:42.009Z,85.92
2022-12-15T21:04:47.006Z,86.32
2022-12-15T21:09:51.228Z,86.13
2022-12-15T21:14:55.456Z,85.69
2022-12-15T21:20:00.531Z,85.63
2022-12-15T21:25:15.023Z,85.65
2022-12-15T21:30:25.489Z,85.36
2022-12-15T21:35:31.884Z,85.37
2022-12-15T21:41:05.352Z,85.45
2022-12-15T21:46:15.421Z,85.14
2022-12-15T21:51:19.539Z,85.42
2022-12-15T21:56:23.492Z,85.19
2022-12-15T22:01:30.414Z,85.04
2022-12-15T22:06:34.496Z,85.09
2022-12-15T22:11:40.355Z,85.25
2022-12-15T22:16:44.788Z,85.07
2022-12-15T22:21:49.323Z,85.62
2022-12-15T22:26:53.295Z,85.53
2022-12-15T22:31:58.809Z,85.19
2022-12-15T22:37:03.075Z,85.43
2022-12-15T22:42:09.293Z,85.19
2022-12-15T22:47:13.561Z,85.45
2022-12-15T22:52:19.876Z,85.70
2022-12-15T22:57:26.219Z,85.36
2022-12-15T23:02:35.838Z,85.27
2022-12-15T23:07:39.641Z,85.69
2022-12-15T23:12:43.547Z,86.04
2022-12-15T23:17:47.257Z,86.34
2022-12-15T23:22:51.082Z,85.86
2022-12-15T23:27:55.610Z,86.17
2022-12-15T23:32:59.446Z,86.26
2022-12-15T23:43:19.223Z,86.45
2022-12-15T23:48:29.912Z,86.56
2022-12-15T23:53:38.423Z,87.32
2022-12-15T23:58:47.636Z,86.94
